createdAt,value
2019-01-27T00:01:23.354Z,33.13
2019-01-27T00:03:55.185Z,32.13
2019-01-27T00:06:25.514Z,32.03
2019-01-27T00:08:57.714Z,33.23
2019-01-27T00:11:28.378Z,34.47
2019-01-27T00:13:59.283Z,30.93
2019-01-27T00:16:29.672Z,31.33
2019-01-27T00:19:00.655Z,31.97
2019-01-27T00:21:33.027Z,30.43
2019-01-27T00:24:04.018Z,30.00
2019-01-27T00:26:35.032Z,30.47
2019-01-27T00:29:09.489Z,30.47
2019-01-27T00:31:40.313Z,30.43
2019-01-27T00:34:11.452Z,32.17
2019-01-27T00:36:42.424Z,32.07
2019-01-27T00:39:13.679Z,29.13
2019-01-27T00:41:44.874Z,30.30
2019-01-27T00:44:16.868Z,28.77
2019-01-27T00:46:49.409Z,28.23
2019-01-27T00:49:20.720Z,28.33
2019-01-27T00:51:52.752Z,30.50
2019-01-27T00:54:24.708Z,29.50
2019-01-27T00:56:57.838Z,28.13
2019-01-27T00:59:29.855Z,30.27
2019-01-27T01:02:00.658Z,30.20
2019-01-27T01:04:31.750Z,29.97
2019-01-27T01:07:02.406Z,30.10
2019-01-27T01:09:33.725Z,29.77
2019-01-27T01:12:04.766Z,28.40
2019-01-27T01:14:35.660Z,30.40
2019-01-27T01:17:06.868Z,30.67
2019-01-27T01:19:38.058Z,29.73
2019-01-27T01:22:09.986Z,28.93
2019-01-27T01:24:41.046Z,29.57
2019-01-27T01:27:13.371Z,29.27
2019-01-27T01:29:43.792Z,30.83
2019-01-27T01:32:15.341Z,28.30
2019-01-27T01:34:46.138Z,29.77
2019-01-27T01:37:17.500Z,27.90
2019-01-27T01:39:48.416Z,28.90
2019-01-27T01:42:19.101Z,28.67
2019-01-27T01:44:51.414Z,26.37
2019-01-27T01:47:22.900Z,27.00
2019-01-27T01:49:53.332Z,28.27
2019-01-27T01:52:24.232Z,28.40
2019-01-27T01:54:55.675Z,26.83
2019-01-27T01:57:27.018Z,28.07
2019-01-27T01:59:57.525Z,27.63
2019-01-27T02:02:28.066Z,27.07
2019-01-27T02:04:58.756Z,26.60
2019-01-27T02:07:29.705Z,26.90
2019-01-27T02:10:00.411Z,26.07
2019-01-27T02:12:32.111Z,26.50
2019-01-27T02:15:04.613Z,27.30
2019-01-27T02:17:35.035Z,26.47
2019-01-27T02:20:06.955Z,25.00
2019-01-27T02:22:37.675Z,24.20
2019-01-27T02:25:09.947Z,26.17
2019-01-27T02:27:41.094Z,24.97
2019-01-27T02:30:14.032Z,23.63
2019-01-27T02:32:45.425Z,25.50
2019-01-27T02:35:17.205Z,25.77
2019-01-27T02:37:49.106Z,25.87
2019-01-27T02:40:20.225Z,26.13
2019-01-27T02:42:51.062Z,27.27
2019-01-27T02:45:23.457Z,25.07
2019-01-27T02:47:55.287Z,26.17
2019-01-27T02:50:25.767Z,25.30
2019-01-27T02:52:56.323Z,25.07
2019-01-27T02:55:28.338Z,25.40
2019-01-27T02:58:00.108Z,26.00
2019-01-27T03:00:30.663Z,25.43
2019-01-27T03:03:01.143Z,24.87
2019-01-27T03:05:39.764Z,26.23
2019-01-27T03:08:12.849Z,25.47
2019-01-27T03:10:44.609Z,26.40
2019-01-27T03:13:16.034Z,27.80
2019-01-27T03:15:46.680Z,30.37
2019-01-27T03:18:17.846Z,30.60
2019-01-27T03:20:48.453Z,28.70
2019-01-27T03:23:19.886Z,28.00
2019-01-27T03:25:51.295Z,30.57
2019-01-27T03:28:22.230Z,28.90
2019-01-27T03:30:53.026Z,29.77
2019-01-27T03:33:23.625Z,29.17
2019-01-27T03:35:54.409Z,29.00
2019-01-27T03:38:25.232Z,28.53
2019-01-27T03:40:57.449Z,31.37
2019-01-27T03:43:28.358Z,33.13
2019-01-27T03:46:00.216Z,29.83
2019-01-27T03:48:31.356Z,29.77
2019-01-27T03:51:02.124Z,29.33
2019-01-27T03:53:34.056Z,30.27
2019-01-27T03:56:05.296Z,28.70
2019-01-27T03:58:36.482Z,31.57
2019-01-27T04:01:07.524Z,30.30
2019-01-27T04:03:38.194Z,31.70
2019-01-27T04:06:11.046Z,31.70
2019-01-27T04:08:42.126Z,32.97
2019-01-27T04:11:13.003Z,30.67
2019-01-27T04:13:43.525Z,30.53
2019-01-27T04:16:15.192Z,32.00
2019-01-27T04:18:47.967Z,31.83
2019-01-27T04:21:19.862Z,33.07
2019-01-27T04:23:50.437Z,31.50
2019-01-27T04:26:21.203Z,32.60
2019-01-27T04:28:52.530Z,31.03
2019-01-27T04:31:24.120Z,30.70
2019-01-27T04:33:56.580Z,31.93
2019-01-27T04:36:28.077Z,30.23
2019-01-27T04:39:00.457Z,30.73
2019-01-27T04:41:31.424Z,29.33
2019-01-27T04:44:05.971Z,31.00
2019-01-27T04:46:39.500Z,29.37
2019-01-27T04:49:10.803Z,29.60
2019-01-27T04:51:45.431Z,29.07
2019-01-27T04:54:17.886Z,27.43
2019-01-27T04:56:48.575Z,27.40
2019-01-27T04:59:19.398Z,27.00
2019-01-27T05:01:50.231Z,26.37
2019-01-27T05:04:23.985Z,25.83
2019-01-27T05:06:55.808Z,24.70
2019-01-27T05:09:27.915Z,25.60
2019-01-27T05:11:58.501Z,24.67
2019-01-27T05:14:29.193Z,23.70
2019-01-27T05:17:01.788Z,24.77
2019-01-27T05:19:32.759Z,23.13
2019-01-27T05:22:03.062Z,23.60
2019-01-27T05:24:33.843Z,21.90
2019-01-27T05:27:06.450Z,23.67
2019-01-27T05:29:42.580Z,22.70
2019-01-27T05:32:15.091Z,22.43
2019-01-27T05:34:47.357Z,20.97
2019-01-27T05:37:23.670Z,20.77
2019-01-27T05:39:55.392Z,19.57
2019-01-27T05:42:26.249Z,20.43
2019-01-27T05:44:58.811Z,20.73
2019-01-27T05:47:29.397Z,22.50
2019-01-27T05:50:00.337Z,21.67
2019-01-27T05:52:31.770Z,22.33
2019-01-27T05:55:02.369Z,20.50
2019-01-27T05:57:33.126Z,21.30
2019-01-27T06:00:05.012Z,19.83
2019-01-27T06:02:35.979Z,19.60
2019-01-27T06:05:08.437Z,21.07
2019-01-27T06:07:42.082Z,23.43
2019-01-27T06:10:14.259Z,20.67
2019-01-27T06:12:45.069Z,18.47
2019-01-27T06:15:17.231Z,19.30
2019-01-27T06:17:48.770Z,18.17
2019-01-27T06:20:21.350Z,17.70
2019-01-27T06:22:53.750Z,16.73
2019-01-27T06:25:26.263Z,16.27
2019-01-27T06:27:57.426Z,16.10
2019-01-27T06:30:28.758Z,15.40
2019-01-27T06:33:18.485Z,14.77
2019-01-27T06:35:49.064Z,13.73
2019-01-27T06:38:20.879Z,13.13
2019-01-27T06:40:52.677Z,14.53
2019-01-27T06:43:24.526Z,13.50
2019-01-27T06:45:54.845Z,14.80
2019-01-27T06:48:27.388Z,13.40
2019-01-27T06:50:58.019Z,13.37
2019-01-27T06:53:30.743Z,12.87
2019-01-27T06:56:01.920Z,13.10
2019-01-27T06:58:36.277Z,13.00
2019-01-27T07:01:12.738Z,14.27
2019-01-27T07:03:46.589Z,13.37
2019-01-27T07:06:20.422Z,13.30
2019-01-27T07:08:53.181Z,14.17
2019-01-27T07:11:32.891Z,16.83
2019-01-27T07:14:12.963Z,14.60
2019-01-27T07:16:55.345Z,15.17
2019-01-27T07:19:41.264Z,14.27
2019-01-27T07:22:30.135Z,12.40
2019-01-27T07:25:02.283Z,12.80
2019-01-27T07:27:34.493Z,16.27
2019-01-27T07:30:15.814Z,11.90
2019-01-27T07:32:57.002Z,12.47
2019-01-27T07:35:30.299Z,12.50
2019-01-27T07:38:03.980Z,12.97
2019-01-27T07:40:42.823Z,14.57
2019-01-27T07:43:31.067Z,13.33
2019-01-27T07:46:10.370Z,15.47
2019-01-27T07:48:50.607Z,17.33
2019-01-27T07:51:27.559Z,15.30
2019-01-27T07:54:17.026Z,15.03
2019-01-27T07:56:51.457Z,13.83
2019-01-27T07:59:27.152Z,18.77
2019-01-27T08:02:03.083Z,15.90
2019-01-27T08:04:35.813Z,17.97
2019-01-27T08:07:26.072Z,16.37
2019-01-27T08:09:59.685Z,19.07
2019-01-27T08:12:41.351Z,16.17
2019-01-27T08:15:29.969Z,17.10
2019-01-27T08:18:03.435Z,14.27
2019-01-27T08:20:39.687Z,14.50
2019-01-27T08:23:13.765Z,16.80
2019-01-27T08:25:54.303Z,15.63
2019-01-27T08:28:42.159Z,16.30
2019-01-27T08:31:29.046Z,15.87
2019-01-27T08:34:03.790Z,15.80
2019-01-27T08:36:44.781Z,16.07
2019-01-27T08:39:17.190Z,15.33
2019-01-27T08:42:03.635Z,15.10
2019-01-27T08:44:51.074Z,14.43
2019-01-27T08:47:21.971Z,14.03
2019-01-27T08:49:55.104Z,15.50
2019-01-27T08:52:26.699Z,14.10
2019-01-27T08:54:58.626Z,14.90
2019-01-27T08:57:29.614Z,15.57
2019-01-27T09:00:01.049Z,15.03
2019-01-27T09:02:36.179Z,14.30
2019-01-27T09:05:10.743Z,14.40
2019-01-27T09:07:59.443Z,14.07
2019-01-27T09:10:38.106Z,15.13
2019-01-27T09:13:16.539Z,14.43
2019-01-27T09:16:04.589Z,14.47
2019-01-27T09:18:36.446Z,14.60
2019-01-27T09:21:11.166Z,15.87
2019-01-27T09:23:46.072Z,16.00
2019-01-27T09:26:18.817Z,14.70
2019-01-27T09:28:50.524Z,15.03
2019-01-27T09:31:22.384Z,15.80
2019-01-27T09:34:13.289Z,14.43
2019-01-27T09:37:00.328Z,14.23
2019-01-27T09:39:32.234Z,14.77
2019-01-27T09:42:13.132Z,14.10
2019-01-27T09:44:49.764Z,13.97
2019-01-27T09:47:27.569Z,12.90
2019-01-27T09:50:05.380Z,13.53
2019-01-27T09:52:52.360Z,13.00
2019-01-27T09:55:24.085Z,13.03
2019-01-27T09:58:04.836Z,13.93
2019-01-27T10:00:45.852Z,13.30
2019-01-27T10:03:17.508Z,12.60
2019-01-27T10:05:49.363Z,13.57
2019-01-27T10:08:23.960Z,12.87
2019-01-27T10:11:04.562Z,13.73
2019-01-27T10:13:36.318Z,13.77
2019-01-27T10:16:14.023Z,13.27
2019-01-27T10:18:49.375Z,13.17
2019-01-27T10:21:29.894Z,12.63
2019-01-27T10:24:03.552Z,12.57
2019-01-27T10:26:39.606Z,15.47
2019-01-27T10:29:11.706Z,13.83
2019-01-27T10:31:52.805Z,13.00
2019-01-27T10:34:31.066Z,12.40
2019-01-27T10:37:12.007Z,13.03
2019-01-27T10:39:39.774Z,13.57
2019-01-27T10:42:13.497Z,13.07
2019-01-27T10:44:53.633Z,13.03
2019-01-27T10:47:35.420Z,14.23
2019-01-27T10:50:26.341Z,13.40
2019-01-27T10:53:04.517Z,12.23
2019-01-27T10:55:41.542Z,13.63
2019-01-27T10:58:19.570Z,14.23
2019-01-27T11:00:51.231Z,12.07
2019-01-27T11:03:34.772Z,15.63
2019-01-27T11:06:09.824Z,12.53
2019-01-27T11:08:56.939Z,12.57
2019-01-27T11:11:40.476Z,12.90
2019-01-27T11:14:14.590Z,13.47
2019-01-27T11:16:46.436Z,15.17
2019-01-27T11:19:18.376Z,12.77
2019-01-27T11:21:53.254Z,12.27
2019-01-27T11:24:27.665Z,11.63
2019-01-27T11:26:59.901Z,11.70
2019-01-27T11:29:46.276Z,11.63
2019-01-27T11:32:18.120Z,11.53
2019-01-27T11:35:07.623Z,11.57
2019-01-27T11:37:55.666Z,11.50
2019-01-27T11:40:39.518Z,11.10
2019-01-27T11:43:14.555Z,11.03
2019-01-27T11:46:04.525Z,11.80
2019-01-27T11:48:36.510Z,12.50
2019-01-27T11:51:08.566Z,12.37
2019-01-27T11:53:38.901Z,12.60
2019-01-27T11:56:09.170Z,12.33
2019-01-27T11:58:39.279Z,11.63
2019-01-27T12:01:09.365Z,12.43
2019-01-27T12:03:39.500Z,12.93
2019-01-27T12:06:09.661Z,12.87
2019-01-27T12:08:40.063Z,12.70
2019-01-27T12:11:10.101Z,11.93
2019-01-27T12:13:40.208Z,11.17
2019-01-27T12:16:10.581Z,11.00
2019-01-27T12:18:41.095Z,11.23
2019-01-27T12:21:11.123Z,10.43
2019-01-27T12:23:41.497Z,11.83
2019-01-27T12:26:11.630Z,12.40
2019-01-27T12:28:41.906Z,11.17
2019-01-27T12:31:12.220Z,12.33
2019-01-27T12:33:42.264Z,12.57
2019-01-27T12:36:12.513Z,11.47
2019-01-27T12:38:42.728Z,11.73
2019-01-27T12:41:12.926Z,10.73
2019-01-27T12:43:43.105Z,10.90
2019-01-27T12:46:13.483Z,10.87
2019-01-27T12:48:43.909Z,10.70
2019-01-27T12:51:14.085Z,11.10
2019-01-27T12:53:45.260Z,12.83
2019-01-27T12:56:15.530Z,11.50
2019-01-27T12:58:46.079Z,13.90
2019-01-27T13:01:16.807Z,12.17
2019-01-27T13:03:47.124Z,12.03
2019-01-27T13:06:17.212Z,11.27
2019-01-27T13:08:47.501Z,11.47
2019-01-27T13:11:17.821Z,12.43
2019-01-27T13:13:48.304Z,13.43
2019-01-27T13:16:18.477Z,12.37
2019-01-27T13:18:48.699Z,9.27
2019-01-27T13:21:18.848Z,9.03
2019-01-27T13:23:49.137Z,12.87
2019-01-27T13:26:19.240Z,11.13
2019-01-27T13:28:49.671Z,8.67
2019-01-27T13:31:21.710Z,10.83
2019-01-27T13:33:52.208Z,11.57
2019-01-27T13:36:22.530Z,11.60
2019-01-27T13:38:53.028Z,9.90
2019-01-27T13:41:23.215Z,11.00
2019-01-27T13:43:53.838Z,12.07
2019-01-27T13:46:23.960Z,12.00
2019-01-27T13:48:54.111Z,10.17
2019-01-27T13:51:24.145Z,10.67
2019-01-27T13:53:54.474Z,10.83
2019-01-27T13:56:24.635Z,10.20
2019-01-27T13:58:54.747Z,9.37
2019-01-27T14:01:25.006Z,14.47
2019-01-27T14:03:55.240Z,14.27
2019-01-27T14:06:25.246Z,19.37
2019-01-27T14:08:55.543Z,16.10
2019-01-27T14:11:25.739Z,17.37
2019-01-27T14:13:56.087Z,13.53
2019-01-27T14:16:26.456Z,16.13
2019-01-27T14:18:57.340Z,13.27
2019-01-27T14:21:27.593Z,11.13
2019-01-27T14:23:57.824Z,12.10
2019-01-27T14:26:28.405Z,9.83
2019-01-27T14:28:59.640Z,10.83
2019-01-27T14:31:30.102Z,11.60
2019-01-27T14:34:00.910Z,9.90
2019-01-27T14:36:31.521Z,15.40
2019-01-27T14:39:02.031Z,10.03
2019-01-27T14:41:34.019Z,9.30
2019-01-27T14:44:04.482Z,13.93
2019-01-27T14:46:35.234Z,8.67
2019-01-27T14:49:05.702Z,8.73
2019-01-27T14:51:36.079Z,9.60
2019-01-27T14:54:06.392Z,11.13
2019-01-27T14:56:37.023Z,10.63
2019-01-27T14:59:08.955Z,11.27
2019-01-27T15:01:39.192Z,10.63
2019-01-27T15:04:09.505Z,10.43
2019-01-27T15:06:41.118Z,11.13
2019-01-27T15:09:11.505Z,10.13
2019-01-27T15:11:41.914Z,10.43
2019-01-27T15:14:12.234Z,9.00
2019-01-27T15:16:43.285Z,10.20
2019-01-27T15:19:13.721Z,10.57
2019-01-27T15:21:43.838Z,11.30
2019-01-27T15:24:14.259Z,11.33
2019-01-27T15:26:46.018Z,11.07
2019-01-27T15:29:16.363Z,11.50
2019-01-27T15:31:46.744Z,12.13
2019-01-27T15:34:17.265Z,13.00
2019-01-27T15:36:47.542Z,12.77
2019-01-27T15:39:17.884Z,12.47
2019-01-27T15:41:48.196Z,12.70
2019-01-27T15:44:18.415Z,11.37
2019-01-27T15:46:48.969Z,14.53
2019-01-27T15:49:20.904Z,14.23
2019-01-27T15:51:51.135Z,15.20
2019-01-27T15:54:21.880Z,14.03
2019-01-27T15:56:53.619Z,14.70
2019-01-27T15:59:24.715Z,15.57
2019-01-27T16:01:54.985Z,14.20
2019-01-27T16:04:25.271Z,16.33
2019-01-27T16:06:55.641Z,13.73
2019-01-27T16:09:26.023Z,13.77
2019-01-27T16:11:56.144Z,13.93
2019-01-27T16:14:26.425Z,16.77
2019-01-27T16:16:56.606Z,15.93
2019-01-27T16:19:26.868Z,16.00
2019-01-27T16:21:56.983Z,17.87
2019-01-27T16:24:27.483Z,18.47
2019-01-27T16:26:57.667Z,16.97
2019-01-27T16:29:42.277Z,17.47
2019-01-27T16:32:14.199Z,17.47
2019-01-27T16:34:44.516Z,15.57
2019-01-27T16:37:14.918Z,18.20
2019-01-27T16:39:45.190Z,19.33
2019-01-27T16:42:15.709Z,17.63
2019-01-27T16:44:45.921Z,21.30
2019-01-27T16:47:18.989Z,19.23
2019-01-27T16:49:47.956Z,18.47
2019-01-27T16:52:17.966Z,23.17
2019-01-27T16:54:48.166Z,26.73
2019-01-27T16:57:18.467Z,19.60
2019-01-27T16:59:48.774Z,21.63
2019-01-27T17:02:19.057Z,18.63
2019-01-27T17:04:49.662Z,20.73
2019-01-27T17:07:19.946Z,23.10
2019-01-27T17:09:50.091Z,21.50
2019-01-27T17:12:21.045Z,19.67
2019-01-27T17:14:51.241Z,18.33
2019-01-27T17:17:21.474Z,17.63
2019-01-27T17:19:51.605Z,19.17
2019-01-27T17:22:21.721Z,16.90
2019-01-27T17:24:52.060Z,21.20
2019-01-27T17:27:22.335Z,18.97
2019-01-27T17:29:52.614Z,17.93
2019-01-27T17:32:22.774Z,19.10
2019-01-27T17:34:54.554Z,19.13
2019-01-27T17:37:26.378Z,20.43
2019-01-27T17:39:57.169Z,18.00
2019-01-27T17:42:27.576Z,16.57
2019-01-27T17:44:58.192Z,18.30
2019-01-27T17:47:29.947Z,16.90
2019-01-27T17:50:01.110Z,17.27
2019-01-27T17:52:31.813Z,20.57
2019-01-27T17:55:02.133Z,21.07
2019-01-27T17:57:33.928Z,35.17
2019-01-27T18:00:08.871Z,20.27
2019-01-27T18:02:43.775Z,21.10
2019-01-27T18:05:18.568Z,20.53
2019-01-27T18:07:50.557Z,20.97
2019-01-27T18:10:22.352Z,21.13
2019-01-27T18:12:55.826Z,20.73
2019-01-27T18:15:26.663Z,20.83
2019-01-27T18:17:57.140Z,21.17
2019-01-27T18:20:29.083Z,21.37
2019-01-27T18:22:59.459Z,20.40
2019-01-27T18:25:30.014Z,21.27
2019-01-27T18:28:00.284Z,22.47
2019-01-27T18:30:30.650Z,22.30
2019-01-27T18:33:01.183Z,23.10
2019-01-27T18:35:33.026Z,21.03
2019-01-27T18:38:03.663Z,20.80
2019-01-27T18:40:33.996Z,20.50
2019-01-27T18:43:04.589Z,20.60
2019-01-27T18:45:35.125Z,19.83
2019-01-27T18:48:05.655Z,19.90
2019-01-27T18:50:36.006Z,21.63
2019-01-27T18:53:09.440Z,21.50
2019-01-27T18:55:50.566Z,22.40
2019-01-27T18:58:28.620Z,20.20
2019-01-27T19:01:06.927Z,20.27
2019-01-27T19:03:38.911Z,19.93
2019-01-27T19:06:11.076Z,20.23
2019-01-27T19:08:44.446Z,20.73
2019-01-27T19:11:16.622Z,19.70
2019-01-27T19:13:48.946Z,20.97
2019-01-27T19:16:39.408Z,20.90
2019-01-27T19:19:18.902Z,20.60
2019-01-27T19:21:55.267Z,21.47
2019-01-27T19:24:27.186Z,21.53
2019-01-27T19:27:05.538Z,21.30
2019-01-27T19:29:40.805Z,20.97
2019-01-27T19:32:18.796Z,19.57
2019-01-27T19:34:50.908Z,21.80
2019-01-27T19:37:22.719Z,19.33
2019-01-27T19:39:56.047Z,19.77
2019-01-27T19:42:28.045Z,19.73
2019-01-27T19:45:03.369Z,18.73
2019-01-27T19:47:38.574Z,19.77
2019-01-27T19:50:27.541Z,18.03
2019-01-27T19:53:07.727Z,18.30
2019-01-27T19:55:39.870Z,18.63
2019-01-27T19:58:18.994Z,18.90
2019-01-27T20:00:51.678Z,16.80
2019-01-27T20:03:26.943Z,15.23
2019-01-27T20:06:09.388Z,15.43
2019-01-27T20:08:47.722Z,15.70
2019-01-27T20:11:45.453Z,15.80
2019-01-27T20:14:17.080Z,15.13
2019-01-27T20:17:07.758Z,13.77
2019-01-27T20:19:40.026Z,13.87
2019-01-27T20:22:12.092Z,14.03
2019-01-27T20:25:00.665Z,14.00
2019-01-27T20:27:32.508Z,12.77
2019-01-27T20:30:04.766Z,13.43
2019-01-27T20:32:48.948Z,12.93
2019-01-27T20:35:27.517Z,12.23
2019-01-27T20:38:15.483Z,11.53
2019-01-27T20:41:01.355Z,11.67
2019-01-27T20:43:51.862Z,11.73
2019-01-27T20:46:30.474Z,11.63
2019-01-27T20:49:03.864Z,11.53
2019-01-27T20:51:45.234Z,10.80
2019-01-27T20:54:22.249Z,9.93
2019-01-27T20:57:09.462Z,10.17
2019-01-27T20:59:41.442Z,9.27
2019-01-27T21:02:13.489Z,9.97
2019-01-27T21:04:56.611Z,10.97
2019-01-27T21:07:43.245Z,9.43
2019-01-27T21:10:18.516Z,9.43
2019-01-27T21:12:56.551Z,9.30
2019-01-27T21:15:35.877Z,9.13
2019-01-27T21:18:08.090Z,10.33
2019-01-27T21:20:41.196Z,9.60
2019-01-27T21:23:11.793Z,9.77
2019-01-27T21:25:43.571Z,9.13
2019-01-27T21:28:14.019Z,9.20
2019-01-27T21:30:44.448Z,8.60
2019-01-27T21:33:14.828Z,8.47
2019-01-27T21:35:45.254Z,8.50
2019-01-27T21:38:15.617Z,8.43
2019-01-27T21:40:47.556Z,8.97
2019-01-27T21:43:20.874Z,9.10
2019-01-27T21:45:51.347Z,8.53
2019-01-27T21:48:24.668Z,10.53
2019-01-27T21:50:55.054Z,8.63
2019-01-27T21:53:26.872Z,9.77
2019-01-27T21:55:57.345Z,9.13
2019-01-27T21:58:29.241Z,8.47
2019-01-27T22:00:59.665Z,8.53
2019-01-27T22:03:30.017Z,8.43
2019-01-27T22:06:00.730Z,9.23
2019-01-27T22:08:32.727Z,9.13
2019-01-27T22:11:02.921Z,8.97
2019-01-27T22:13:33.212Z,9.03
2019-01-27T22:16:03.260Z,9.77
2019-01-27T22:18:33.457Z,9.07
2019-01-27T22:21:04.376Z,10.33
2019-01-27T22:23:34.806Z,10.07
2019-01-27T22:26:05.308Z,8.43
2019-01-27T22:28:35.652Z,9.23
2019-01-27T22:31:06.599Z,8.33
2019-01-27T22:33:37.325Z,8.03
2019-01-27T22:36:07.383Z,8.17
2019-01-27T22:38:37.558Z,7.53
2019-01-27T22:41:07.998Z,7.70
2019-01-27T22:43:38.390Z,7.53
2019-01-27T22:46:08.808Z,8.13
2019-01-27T22:48:39.273Z,7.03
2019-01-27T22:51:09.419Z,7.03
2019-01-27T22:53:39.891Z,6.87
2019-01-27T22:56:10.046Z,6.27
2019-01-27T22:58:40.644Z,7.00
2019-01-27T23:01:13.111Z,7.63
2019-01-27T23:03:43.358Z,7.53
2019-01-27T23:06:13.568Z,6.23
2019-01-27T23:08:43.702Z,6.80
2019-01-27T23:11:13.944Z,5.87
2019-01-27T23:13:44.311Z,7.00
2019-01-27T23:16:14.469Z,5.43
2019-01-27T23:18:44.664Z,4.97
2019-01-27T23:21:14.767Z,4.80
2019-01-27T23:23:44.763Z,4.97
2019-01-27T23:26:15.106Z,4.30
2019-01-27T23:28:46.683Z,4.50
2019-01-27T23:31:17.145Z,4.77
2019-01-27T23:33:47.669Z,4.53
2019-01-27T23:36:18.115Z,4.60
2019-01-27T23:38:49.194Z,4.37
2019-01-27T23:41:19.442Z,4.10
2019-01-27T23:43:50.005Z,3.67
2019-01-27T23:46:21.011Z,4.37
2019-01-27T23:48:53.134Z,4.53
2019-01-27T23:51:23.182Z,5.17
2019-01-27T23:53:53.717Z,6.10
2019-01-27T23:56:24.149Z,6.90
2019-01-27T23:58:54.542Z,6.97
